Time;durP1;ratioP1;P1;durP2;ratioP2;P2;SDS_P1;SDS_P2;PMS_P1;PMS_P2;Temp;Humidity;BMP_temperature;BMP_pressure;BME280_temperature;BME280_humidity;BME280_pressure;Samples;Min_cycle;Max_cycle;Signal;HPM_P1;HPM_P2
2021/11/02 00:01:35;;;;;;;1.65;1.38;;;12.10;74.30;;;;;;5071320;28;20108;-77
2021/11/02 00:04:02;;;;;;;2.90;1.65;;;12.10;74.30;;;;;;5054555;28;20047;-77
2021/11/02 00:06:28;;;;;;;1.95;1.50;;;12.00;74.20;;;;;;5054634;28;20035;-77
2021/11/02 00:08:54;;;;;;;1.73;1.35;;;12.00;74.30;;;;;;5054064;28;20396;-77
2021/11/02 00:11:20;;;;;;;1.95;1.48;;;12.00;74.30;;;;;;5037668;28;20037;-77
2021/11/02 00:13:49;;;;;;;2.33;1.55;;;12.00;74.30;;;;;;5054058;28;20044;-78
2021/11/02 00:16:20;;;;;;;2.75;1.50;;;12.00;74.30;;;;;;5037952;28;20064;-78
2021/11/02 00:18:51;;;;;;;2.25;1.40;;;12.00;74.30;;;;;;5053975;28;20071;-79
2021/11/02 00:21:17;;;;;;;1.63;1.30;;;11.90;74.30;;;;;;5057274;28;20044;-77
2021/11/02 00:23:43;;;;;;;2.97;1.48;;;11.90;74.20;;;;;;5058971;28;20053;-77
2021/11/02 00:26:12;;;;;;;1.90;1.40;;;11.90;74.30;;;;;;5059340;28;20021;-77
2021/11/02 00:28:39;;;;;;;1.60;1.50;;;11.90;74.30;;;;;;5054840;28;20078;-77
2021/11/02 00:31:05;;;;;;;1.80;1.42;;;11.90;74.30;;;;;;5054324;28;20033;-79
2021/11/02 00:33:31;;;;;;;1.48;1.30;;;11.90;74.30;;;;;;5054524;28;20060;-79
2021/11/02 00:35:57;;;;;;;1.95;1.65;;;11.90;74.30;;;;;;5054796;28;20412;-78
2021/11/02 00:38:24;;;;;;;2.03;1.60;;;11.90;74.30;;;;;;5055131;28;20029;-77
2021/11/02 00:40:49;;;;;;;1.83;1.50;;;11.80;74.30;;;;;;5055474;28;20126;-78
2021/11/02 00:43:16;;;;;;;1.83;1.48;;;11.80;74.30;;;;;;5055007;28;20068;-77
2021/11/02 00:45:44;;;;;;;2.40;1.50;;;11.80;74.30;;;;;;5053354;28;20021;-78
2021/11/02 00:48:12;;;;;;;1.75;1.50;;;11.80;74.30;;;;;;5053936;28;20526;-77
2021/11/02 00:50:44;;;;;;;1.90;1.40;;;11.80;74.30;;;;;;5069496;28;20025;-77
2021/11/02 00:53:11;;;;;;;2.83;1.58;;;11.70;74.30;;;;;;5053612;28;20025;-77
2021/11/02 00:55:37;;;;;;;2.55;1.75;;;11.70;74.30;;;;;;5057211;28;20104;-78
2021/11/02 00:58:05;;;;;;;2.70;1.67;;;11.70;74.30;;;;;;5054047;28;20149;-77
2021/11/02 01:00:34;;;;;;;2.15;1.60;;;11.70;74.30;;;;;;5053775;28;20021;-77
2021/11/02 01:03:01;;;;;;;2.00;1.63;;;11.70;74.40;;;;;;5054867;28;20029;-77
2021/11/02 01:05:28;;;;;;;1.42;1.33;;;11.70;75.00;;;;;;5053029;28;20080;-77
2021/11/02 01:07:54;;;;;;;2.22;1.58;;;11.70;74.40;;;;;;5053022;28;20135;-77
2021/11/02 01:10:20;;;;;;;1.58;1.30;;;11.60;74.30;;;;;;5053007;28;20060;-77
2021/11/02 01:12:50;;;;;;;1.77;1.35;;;11.60;74.30;;;;;;5052619;28;20036;-78
2021/11/02 01:15:20;;;;;;;2.78;1.80;;;11.60;74.30;;;;;;5069677;28;20029;-77
2021/11/02 01:17:46;;;;;;;1.95;1.50;;;11.60;74.40;;;;;;5071213;28;20099;-77
2021/11/02 01:20:14;;;;;;;1.98;1.70;;;11.60;74.40;;;;;;5056525;28;20090;-76
2021/11/02 01:22:42;;;;;;;2.25;1.48;;;11.50;74.30;;;;;;5056185;28;20482;-77
2021/11/02 01:25:10;;;;;;;2.97;1.90;;;11.60;74.40;;;;;;5056250;28;20036;-77
2021/11/02 01:27:37;;;;;;;2.63;1.77;;;11.50;74.40;;;;;;5089902;28;20033;-79
2021/11/02 01:30:04;;;;;;;1.85;1.50;;;11.50;74.40;;;;;;5056367;28;20025;-77
2021/11/02 01:32:31;;;;;;;2.33;1.63;;;11.50;74.40;;;;;;5055988;28;20017;-77
2021/11/02 01:34:59;;;;;;;2.00;1.55;;;11.50;74.40;;;;;;5040135;28;20086;-78
2021/11/02 01:37:27;;;;;;;2.55;1.80;;;11.50;74.40;;;;;;5057232;28;20017;-80
2021/11/02 01:39:54;;;;;;;1.65;1.30;;;11.50;74.40;;;;;;5056022;28;20036;-78
2021/11/02 01:42:22;;;;;;;1.83;1.60;;;11.40;74.40;;;;;;5055910;28;20083;-78
2021/11/02 01:44:48;;;;;;;2.67;1.70;;;11.40;74.40;;;;;;5055994;28;20033;-78
2021/11/02 01:47:18;;;;;;;1.60;1.40;;;11.40;74.40;;;;;;5056909;28;20051;-78
2021/11/02 01:49:45;;;;;;;3.70;1.88;;;11.40;73.90;;;;;;5039074;28;20065;-77
2021/11/02 01:52:11;;;;;;;1.65;1.45;;;11.40;74.40;;;;;;5055819;28;20055;-78
2021/11/02 01:54:39;;;;;;;2.88;1.88;;;11.30;74.30;;;;;;5039465;28;20046;-78
2021/11/02 01:57:05;;;;;;;2.00;1.63;;;11.30;74.30;;;;;;5056492;28;20524;-78
2021/11/02 01:59:34;;;;;;;2.10;1.63;;;11.30;74.40;;;;;;5055235;28;20159;-78
2021/11/02 02:02:41;;;;;;;2.28;1.73;;;11.30;74.40;;;;;;5058237;28;20037;-77
2021/11/02 02:05:37;;;;;;;2.22;1.70;;;11.30;74.50;;;;;;5055613;28;20109;-78
2021/11/02 02:08:13;;;;;;;2.83;1.60;;;11.20;74.40;;;;;;5055632;28;20082;-77
2021/11/02 02:10:59;;;;;;;;;;;11.30;74.40;;;;;;5055719;28;20033;-78
2021/11/02 02:13:41;;;;;;;2.42;1.63;;;11.20;74.30;;;;;;5055487;28;20357;-78
2021/11/02 02:16:14;;;;;;;2.40;1.63;;;11.20;74.40;;;;;;5054990;28;20032;-77
2021/11/02 02:18:57;;;;;;;2.30;1.80;;;11.10;74.40;;;;;;5055354;28;20107;-79
2021/11/02 02:21:47;;;;;;;1.70;1.50;;;11.10;74.60;;;;;;5082493;28;20101;-77
2021/11/02 02:24:18;;;;;;;1.80;1.48;;;11.10;74.60;;;;;;5055291;28;20045;-77
2021/11/02 02:26:47;;;;;;;2.38;1.50;;;11.10;74.50;;;;;;5054873;28;20032;-77
2021/11/02 02:29:15;;;;;;;2.00;1.58;;;11.10;74.50;;;;;;5054988;28;20025;-77
2021/11/02 02:31:44;;;;;;;2.75;1.75;;;11.00;74.50;;;;;;5055359;28;20033;-78
2021/11/02 02:34:13;;;;;;;2.35;1.75;;;11.10;74.50;;;;;;5055071;28;20025;-77
2021/11/02 02:36:47;;;;;;;2.40;1.63;;;11.00;74.50;;;;;;5055140;28;20075;-78
2021/11/02 02:39:15;;;;;;;2.00;1.65;;;11.00;74.50;;;;;;5054816;28;20060;-78
2021/11/02 02:41:56;;;;;;;1.85;1.60;;;11.00;74.50;;;;;;5054943;28;20032;-78
2021/11/02 02:44:25;;;;;;;1.90;1.55;;;11.00;74.50;;;;;;5038038;28;20048;-77
2021/11/02 02:46:51;;;;;;;2.70;1.85;;;11.00;74.50;;;;;;5054879;28;20457;-78
2021/11/02 02:49:18;;;;;;;1.55;1.40;;;11.00;74.50;;;;;;5054806;28;20472;-78
2021/11/02 02:51:44;;;;;;;1.88;1.65;;;11.00;74.50;;;;;;5054885;28;20183;-77
2021/11/02 02:54:15;;;;;;;2.88;2.00;;;11.00;74.50;;;;;;5055784;28;20035;-78
2021/11/02 02:56:46;;;;;;;2.92;1.85;;;10.90;74.50;;;;;;5055529;28;20047;-79
2021/11/02 02:59:14;;;;;;;1.55;1.45;;;10.90;74.50;;;;;;5054361;28;20044;-79
2021/11/02 03:01:41;;;;;;;1.67;1.50;;;10.90;74.50;;;;;;5054603;28;20029;-78
2021/11/02 03:04:13;;;;;;;2.50;1.60;;;10.90;74.50;;;;;;5054117;28;20037;-78
2021/11/02 03:06:42;;;;;;;2.30;1.77;;;10.90;74.50;;;;;;5071307;28;20025;-78
2021/11/02 03:09:13;;;;;;;3.10;1.52;;;10.90;74.50;;;;;;5038213;28;20491;-78
2021/11/02 03:11:40;;;;;;;1.67;1.58;;;10.80;74.40;;;;;;5037737;28;20031;-78
2021/11/02 03:14:11;;;;;;;2.05;1.60;;;10.80;74.50;;;;;;5054010;28;20071;-78
2021/11/02 03:16:55;;;;;;;3.42;1.77;;;10.80;74.50;;;;;;5070823;28;20049;-78
2021/11/02 03:50:23;;;;;;;2.25;1.60;;;10.60;74.60;;;;;;5053641;28;20029;-79
2021/11/02 03:55:37;;;;;;;1.63;1.50;;;10.50;74.60;;;;;;5055160;28;20460;-78
2021/11/02 03:58:12;;;;;;;2.10;1.55;;;10.50;74.60;;;;;;5053594;28;20447;-78
2021/11/02 04:01:05;;;;;;;2.05;1.80;;;10.50;74.60;;;;;;5038216;28;20035;-78
2021/11/02 05:07:19;;;;;;;1.58;1.48;;;10.20;74.90;;;;;;5052550;28;20129;-78
2021/11/02 05:09:57;;;;;;;2.03;1.60;;;10.20;74.80;;;;;;5050116;28;20047;-78
2021/11/02 05:56:47;;;;;;;2.35;1.70;;;10.00;74.90;;;;;;5054842;28;20429;-79
2021/11/02 06:01:54;;;;;;;2.00;1.65;;;10.00;75.60;;;;;;5051914;28;20024;-77
2021/11/02 06:04:46;;;;;;;1.63;1.48;;;10.00;75.00;;;;;;5035856;28;20037;-78
2021/11/02 06:11:01;;;;;;;2.03;1.60;;;10.00;75.10;;;;;;5056545;28;20039;-79
2021/11/02 06:30:17;;;;;;;2.53;1.80;;;9.90;75.00;;;;;;5055256;28;20044;-77
2021/11/02 06:32:49;;;;;;;1.67;1.58;;;9.90;75.00;;;;;;5054906;28;20128;-77
2021/11/02 06:35:30;;;;;;;1.90;1.70;;;9.90;75.10;;;;;;5055678;28;20044;-78
2021/11/02 06:49:31;;;;;;;1.70;1.50;;;9.90;75.10;;;;;;5056676;28;20036;-78
2021/11/02 08:47:29;;;;;;;2.65;1.98;;;10.00;75.90;;;;;;5052596;28;20395;-79
2021/11/02 08:49:55;;;;;;;1.88;1.65;;;10.00;75.90;;;;;;5052691;28;20488;-79
2021/11/02 08:52:21;;;;;;;1.85;1.63;;;10.00;76.00;;;;;;5052347;28;20033;-80
2021/11/02 08:54:50;;;;;;;2.28;1.70;;;10.00;76.10;;;;;;5052399;28;20033;-79
2021/11/02 08:57:17;;;;;;;2.10;1.65;;;10.00;76.10;;;;;;5052187;28;20029;-78
2021/11/02 08:59:45;;;;;;;2.80;1.80;;;10.10;76.20;;;;;;5052055;28;20045;-79
2021/11/02 09:02:17;;;;;;;1.95;1.60;;;10.10;76.10;;;;;;5069095;28;20029;-78
2021/11/02 09:04:45;;;;;;;1.90;1.60;;;10.20;76.20;;;;;;5068977;28;20139;-78
2021/11/02 09:07:16;;;;;;;2.38;2.00;;;10.20;76.20;;;;;;5069280;28;20056;-78
2021/11/02 09:09:48;;;;;;;1.90;1.60;;;10.20;76.20;;;;;;5052517;28;20021;-79
2021/11/02 09:12:15;;;;;;;1.70;1.60;;;10.20;76.20;;;;;;5052503;28;20025;-78
2021/11/02 09:14:43;;;;;;;1.80;1.52;;;10.30;76.80;;;;;;5053045;28;20025;-79
2021/11/02 09:17:09;;;;;;;1.90;1.70;;;10.30;76.20;;;;;;5052183;28;20025;-78
2021/11/02 09:19:36;;;;;;;1.77;1.63;;;10.30;76.10;;;;;;5052006;28;20029;-78
2021/11/02 09:22:05;;;;;;;1.60;1.50;;;10.30;76.10;;;;;;5035517;28;20040;-79
2021/11/02 09:24:31;;;;;;;1.85;1.45;;;10.30;76.10;;;;;;5053839;28;20052;-79
2021/11/02 09:26:58;;;;;;;1.85;1.60;;;10.40;76.20;;;;;;5053619;28;20025;-78
2021/11/02 09:29:25;;;;;;;2.42;1.98;;;10.40;76.20;;;;;;5052030;28;20024;-78
2021/11/02 09:31:56;;;;;;;1.70;1.55;;;10.40;76.10;;;;;;5052275;28;20420;-78
2021/11/02 09:34:23;;;;;;;1.95;1.55;;;10.50;76.30;;;;;;5051644;28;20036;-80
2021/11/02 09:37:05;;;;;;;1.73;1.60;;;10.50;76.80;;;;;;5051988;28;20485;-78
2021/11/02 09:39:39;;;;;;;1.70;1.48;;;10.50;76.30;;;;;;5052491;28;20036;-78
2021/11/02 09:42:26;;;;;;;1.63;1.50;;;10.50;76.10;;;;;;5056293;28;20037;-78
2021/11/02 09:45:00;;;;;;;1.42;1.33;;;10.50;76.20;;;;;;5055653;28;20044;-78
2021/11/02 09:47:33;;;;;;;1.50;1.40;;;10.60;76.20;;;;;;5056403;28;20017;-78
2021/11/02 09:50:07;;;;;;;1.63;1.50;;;10.60;76.20;;;;;;5055358;28;20036;-78
2021/11/02 09:52:39;;;;;;;1.75;1.50;;;10.60;76.20;;;;;;5057245;28;20182;-79
2021/11/02 09:55:19;;;;;;;1.52;1.40;;;10.60;76.30;;;;;;5057390;28;20108;-78
2021/11/02 09:58:21;;;;;;;2.03;1.45;;;10.60;76.30;;;;;;5057352;28;20071;-78
2021/11/02 10:00:55;;;;;;;1.75;1.60;;;10.70;76.40;;;;;;5055795;28;20036;-78
2021/11/02 10:03:43;;;;;;;1.57;1.40;;;10.60;76.30;;;;;;5055716;28;20395;-78
2021/11/02 10:06:50;;;;;;;1.90;1.60;;;10.70;76.20;;;;;;5055714;28;20025;-78
2021/11/02 10:09:38;;;;;;;1.58;1.42;;;10.70;76.30;;;;;;5056306;28;20037;-78
2021/11/02 10:12:24;;;;;;;2.58;1.50;;;10.70;76.30;;;;;;5056445;28;20108;-78
2021/11/02 10:15:02;;;;;;;1.70;1.60;;;10.70;76.40;;;;;;5056481;28;20112;-79
2021/11/02 10:17:43;;;;;;;1.60;1.50;;;10.80;76.40;;;;;;5056541;28;20033;-77
2021/11/02 10:20:23;;;;;;;1.80;1.60;;;10.80;76.30;;;;;;5056163;28;20104;-78
2021/11/02 10:23:04;;;;;;;1.83;1.60;;;10.80;76.30;;;;;;5068218;28;20045;-78
2021/11/02 10:26:16;;;;;;;1.67;1.50;;;10.80;76.30;;;;;;5055380;28;20102;-79
2021/11/02 10:29:13;;;;;;;1.88;1.40;;;10.90;76.40;;;;;;5056544;28;20033;-78
2021/11/02 10:31:41;;;;;;;1.50;1.40;;;10.90;76.40;;;;;;5055213;28;20029;-79
2021/11/02 10:34:20;;;;;;;1.85;1.58;;;10.90;76.20;;;;;;5054856;28;20036;-78
2021/11/02 10:37:25;;;;;;;1.80;1.60;;;10.90;76.30;;;;;;5054690;28;20033;-78
2021/11/02 10:40:18;;;;;;;1.70;1.60;;;11.00;76.50;;;;;;5054947;28;20017;-78
2021/11/02 10:43:09;;;;;;;1.63;1.52;;;11.00;76.30;;;;;;5054949;28;20025;-78
2021/11/02 10:45:52;;;;;;;1.58;1.48;;;11.00;76.20;;;;;;5057619;28;20369;-78
2021/11/02 10:48:40;;;;;;;2.45;1.63;;;11.10;76.20;;;;;;5055003;28;20083;-78
2021/11/02 10:51:09;;;;;;;1.90;1.58;;;11.10;76.20;;;;;;5055350;28;20056;-79
2021/11/02 10:53:45;;;;;;;1.45;1.35;;;11.10;76.20;;;;;;5054581;28;20028;-79
2021/11/02 10:56:54;;;;;;;1.77;1.67;;;11.20;76.30;;;;;;5072043;28;20039;-78
2021/11/02 10:59:23;;;;;;;1.52;1.40;;;11.10;76.20;;;;;;4981187;28;20034;-78
2021/11/02 11:01:51;;;;;;;2.10;1.77;;;11.20;76.10;;;;;;5043195;28;20033;-78
2021/11/02 11:04:19;;;;;;;2.03;1.83;;;11.20;76.20;;;;;;5054242;28;20131;-78
2021/11/02 11:06:45;;;;;;;1.92;1.70;;;11.20;76.20;;;;;;5054303;28;20083;-78
2021/11/02 11:09:13;;;;;;;1.98;1.77;;;11.30;76.20;;;;;;5071511;28;20370;-78
2021/11/02 11:11:46;;;;;;;1.65;1.50;;;11.30;76.20;;;;;;5070647;28;20021;-78
2021/11/02 11:14:16;;;;;;;2.20;1.67;;;11.40;76.20;;;;;;5054453;28;20462;-78
2021/11/02 11:16:46;;;;;;;1.67;1.50;;;11.40;76.20;;;;;;5056143;28;20033;-78
2021/11/02 11:19:27;;;;;;;2.05;1.85;;;11.40;76.10;;;;;;5054432;28;20086;-78
2021/11/02 11:21:55;;;;;;;2.40;1.88;;;11.50;76.20;;;;;;5071334;28;20052;-77
2021/11/02 11:24:33;;;;;;;2.15;1.80;;;11.50;76.10;;;;;;5053978;28;20049;-78
2021/11/02 11:27:06;;;;;;;1.73;1.60;;;11.50;76.20;;;;;;5054288;28;20075;-77
2021/11/02 11:29:49;;;;;;;1.70;1.60;;;11.50;76.10;;;;;;5054677;28;20036;-78
2021/11/02 11:32:17;;;;;;;1.90;1.70;;;11.50;76.10;;;;;;5070818;28;20037;-77
2021/11/02 11:34:50;;;;;;;1.70;1.60;;;11.60;76.20;;;;;;5053841;28;20068;-79
2021/11/02 11:37:21;;;;;;;2.20;1.70;;;11.60;76.10;;;;;;5054015;28;20123;-77
2021/11/02 11:39:51;;;;;;;2.38;1.80;;;11.60;76.00;;;;;;5053925;28;20029;-78
2021/11/02 11:42:18;;;;;;;3.38;1.83;;;11.70;76.00;;;;;;5053511;28;20158;-77
2021/11/02 11:44:51;;;;;;;2.00;1.75;;;11.70;76.00;;;;;;5053245;28;20048;-77
2021/11/02 11:47:24;;;;;;;2.50;1.92;;;11.70;76.00;;;;;;5053478;28;20037;-78
2021/11/02 11:49:51;;;;;;;3.08;1.90;;;11.70;76.00;;;;;;5054560;28;20025;-75
2021/11/02 11:52:24;;;;;;;2.58;1.80;;;11.80;76.00;;;;;;5053394;28;20025;-76
2021/11/02 11:54:53;;;;;;;3.10;2.05;;;11.80;75.90;;;;;;5036790;28;20029;-78
2021/11/02 11:57:34;;;;;;;1.85;1.65;;;11.80;75.90;;;;;;5070328;28;20026;-77
2021/11/02 12:00:09;;;;;;;2.95;1.67;;;11.80;76.60;;;;;;5053515;28;20025;-77
2021/11/02 12:02:54;;;;;;;2.08;1.70;;;11.90;75.80;;;;;;5052913;28;20036;-77
2021/11/02 12:05:22;;;;;;;2.72;2.00;;;11.90;75.90;;;;;;5052913;28;20033;-76
2021/11/02 12:08:04;;;;;;;2.42;1.95;;;11.90;75.80;;;;;;5070090;28;20029;-77
2021/11/02 12:10:31;;;;;;;2.08;1.88;;;11.90;75.80;;;;;;5053429;28;20029;-76
2021/11/02 12:13:10;;;;;;;2.08;1.70;;;12.00;75.80;;;;;;5054004;28;20064;-77
2021/11/02 12:15:40;;;;;;;1.98;1.75;;;12.00;75.80;;;;;;5053125;28;20078;-78
2021/11/02 12:18:08;;;;;;;2.28;2.08;;;12.00;76.40;;;;;;5054454;28;20028;-77
2021/11/02 12:20:36;;;;;;;2.53;1.98;;;12.00;75.70;;;;;;5053178;28;20407;-77
2021/11/02 12:23:15;;;;;;;1.73;1.55;;;12.00;75.70;;;;;;5052669;28;20052;-77
2021/11/02 12:25:53;;;;;;;2.33;2.00;;;12.10;75.80;;;;;;5054621;28;20461;-78
2021/11/02 12:28:29;;;;;;;1.80;1.70;;;12.10;75.70;;;;;;5053022;28;20094;-76
2021/11/02 12:31:01;;;;;;;1.83;1.70;;;12.10;75.70;;;;;;5052724;28;20029;-77
2021/11/02 12:33:29;;;;;;;2.92;1.98;;;12.10;75.70;;;;;;5069192;28;20492;-76
2021/11/02 12:35:56;;;;;;;2.38;1.98;;;12.20;75.70;;;;;;5052670;28;20522;-78
2021/11/02 12:38:35;;;;;;;2.33;1.95;;;12.20;75.70;;;;;;5036062;28;20032;-78
2021/11/02 12:41:12;;;;;;;3.17;2.05;;;12.20;75.70;;;;;;5053429;28;20036;-78
2021/11/02 12:43:38;;;;;;;2.50;1.95;;;12.20;75.60;;;;;;5068943;28;20037;-77
2021/11/02 12:46:05;;;;;;;2.67;2.10;;;12.30;75.60;;;;;;5053491;28;20524;-77
2021/11/02 12:48:32;;;;;;;3.40;2.30;;;12.30;75.60;;;;;;5052536;28;20481;-77
2021/11/02 12:50:59;;;;;;;2.00;1.80;;;12.30;75.60;;;;;;5053030;28;20453;-76
2021/11/02 12:53:26;;;;;;;2.40;2.13;;;12.30;75.60;;;;;;5069130;28;20059;-77
2021/11/02 12:55:57;;;;;;;2.38;2.03;;;12.30;76.20;;;;;;5036279;28;20021;-78
2021/11/02 12:58:24;;;;;;;2.58;1.90;;;12.30;75.60;;;;;;5052748;28;20496;-78
2021/11/02 13:00:53;;;;;;;2.58;1.98;;;12.40;75.60;;;;;;5053251;28;20526;-78
2021/11/02 13:03:27;;;;;;;2.38;2.13;;;12.40;75.60;;;;;;5053413;28;20078;-78
2021/11/02 13:06:06;;;;;;;2.45;1.85;;;12.40;75.50;;;;;;5053863;28;20037;-79
2021/11/02 13:08:35;;;;;;;2.15;1.83;;;12.40;75.50;;;;;;5053075;28;20040;-78
2021/11/02 13:11:08;;;;;;;2.47;2.03;;;12.40;75.40;;;;;;5051926;28;20028;-77
2021/11/02 13:13:55;;;;;;;3.55;2.42;;;12.50;75.40;;;;;;5052802;28;20033;-77
2021/11/02 13:16:23;;;;;;;2.20;1.80;;;12.50;75.50;;;;;;5056175;28;20461;-78
2021/11/02 13:18:49;;;;;;;2.38;1.83;;;12.50;75.30;;;;;;5056528;28;20013;-78
2021/11/02 13:21:33;;;;;;;2.50;2.10;;;12.60;75.40;;;;;;5073360;28;20036;-77
2021/11/02 13:24:03;;;;;;;2.10;1.90;;;12.50;75.40;;;;;;5057747;28;20537;-78
2021/11/02 13:26:31;;;;;;;2.10;1.90;;;12.60;75.30;;;;;;5056452;28;20033;-78
2021/11/02 13:29:32;;;;;;;3.00;2.10;;;12.60;75.30;;;;;;5057673;28;20036;-78
2021/11/02 13:32:05;;;;;;;2.08;1.80;;;12.60;75.40;;;;;;5056518;28;20076;-78
2021/11/02 13:34:36;;;;;;;2.20;2.00;;;12.60;75.20;;;;;;5073362;28;20037;-78
2021/11/02 13:37:11;;;;;;;1.83;1.70;;;12.70;75.30;;;;;;5057315;28;20029;-78
2021/11/02 13:39:56;;;;;;;2.13;1.90;;;12.70;75.30;;;;;;5056264;28;20454;-78
2021/11/02 13:42:48;;;;;;;2.20;2.00;;;12.70;75.30;;;;;;5056494;28;20040;-78
2021/11/02 13:45:18;;;;;;;2.53;1.90;;;12.70;75.30;;;;;;5064415;28;20523;-78
2021/11/02 13:47:45;;;;;;;2.08;1.88;;;12.70;75.10;;;;;;5056252;28;20076;-76
2021/11/02 13:50:11;;;;;;;2.95;2.10;;;12.70;75.10;;;;;;5055824;28;20053;-76
2021/11/02 13:52:39;;;;;;;2.65;2.20;;;12.80;75.10;;;;;;5055430;28;20090;-77
2021/11/02 13:55:05;;;;;;;2.50;1.98;;;12.80;75.10;;;;;;5072098;28;20465;-76
2021/11/02 13:57:31;;;;;;;2.35;2.13;;;12.80;75.00;;;;;;5056418;28;20057;-77
2021/11/02 13:59:57;;;;;;;2.15;1.95;;;12.80;75.00;;;;;;5055567;28;20393;-77
2021/11/02 14:02:27;;;;;;;2.65;2.15;;;12.90;75.00;;;;;;5055614;28;20041;-78
2021/11/02 14:04:54;;;;;;;3.00;2.03;;;12.90;75.00;;;;;;5056324;28;20072;-77
2021/11/02 14:07:30;;;;;;;2.42;2.13;;;12.90;74.90;;;;;;5055576;28;20495;-77
2021/11/02 14:10:08;;;;;;;1.80;1.67;;;12.90;74.90;;;;;;5072850;28;20025;-78
2021/11/02 14:13:00;;;;;;;2.58;2.08;;;12.90;74.90;;;;;;5055427;28;20515;-77
2021/11/02 14:15:28;;;;;;;2.30;1.90;;;13.00;75.00;;;;;;5052314;28;20036;-77
2021/11/02 14:17:56;;;;;;;2.75;2.00;;;13.00;74.80;;;;;;5055232;28;20016;-78
2021/11/02 14:20:49;;;;;;;2.05;1.83;;;13.00;74.90;;;;;;5056469;28;20040;-78
2021/11/02 14:23:33;;;;;;;2.50;1.88;;;13.00;74.90;;;;;;5056401;28;20048;-77
2021/11/02 14:26:35;;;;;;;2.13;1.92;;;13.00;74.80;;;;;;5054687;28;20029;-78
2021/11/02 14:29:06;;;;;;;1.98;1.80;;;13.00;74.90;;;;;;5054515;28;20511;-78
2021/11/02 14:31:37;;;;;;;2.75;2.17;;;13.00;74.70;;;;;;5055181;28;20474;-77
2021/11/02 14:34:07;;;;;;;2.70;2.10;;;13.00;74.70;;;;;;5055032;28;20041;-77
2021/11/02 14:36:38;;;;;;;2.05;1.73;;;13.00;74.80;;;;;;5055103;28;20025;-78
2021/11/02 14:39:05;;;;;;;2.10;1.90;;;13.00;74.70;;;;;;5055144;28;20060;-77
2021/11/02 14:41:34;;;;;;;2.47;2.00;;;13.00;74.60;;;;;;5055036;28;20068;-77
2021/11/02 14:44:18;;;;;;;1.98;1.80;;;13.10;74.80;;;;;;5071660;28;20090;-78
2021/11/02 14:46:48;;;;;;;2.20;2.00;;;13.10;74.80;;;;;;5055432;28;20033;-79
2021/11/02 14:49:30;;;;;;;1.88;1.77;;;13.10;74.70;;;;;;5055844;28;20434;-77
2021/11/02 14:52:00;;;;;;;2.58;2.00;;;13.10;74.80;;;;;;5055290;28;20025;-78
2021/11/02 14:54:30;;;;;;;2.10;1.83;;;13.10;74.60;;;;;;5054869;28;20544;-78
2021/11/02 14:56:57;;;;;;;1.77;1.65;;;13.10;74.60;;;;;;5054427;28;20055;-78
2021/11/02 14:59:43;;;;;;;2.28;1.90;;;13.10;74.60;;;;;;5038284;28;20112;-78
2021/11/02 15:02:15;;;;;;;2.40;1.90;;;13.10;74.60;;;;;;5040546;28;20033;-78
2021/11/02 15:04:42;;;;;;;1.73;1.60;;;13.20;74.60;;;;;;5055880;28;20032;-78
2021/11/02 15:07:08;;;;;;;1.55;1.45;;;13.10;74.60;;;;;;5038053;28;20033;-77
2021/11/02 15:09:37;;;;;;;1.85;1.67;;;13.20;74.60;;;;;;5055042;28;20040;-77
2021/11/02 15:12:05;;;;;;;2.05;1.80;;;13.20;74.60;;;;;;5038238;28;20038;-79
2021/11/02 15:14:33;;;;;;;2.00;1.80;;;13.10;74.50;;;;;;5055152;28;20028;-78
2021/11/02 15:17:00;;;;;;;1.67;1.58;;;13.20;74.60;;;;;;5056236;28;20032;-78
2021/11/02 15:19:28;;;;;;;1.95;1.63;;;13.10;74.50;;;;;;5054051;28;20031;-77
2021/11/02 15:22:02;;;;;;;1.50;1.40;;;13.20;74.60;;;;;;5054065;28;20028;-78
2021/11/02 15:24:35;;;;;;;2.17;1.63;;;13.20;74.50;;;;;;5053892;28;20056;-77
2021/11/02 15:27:11;;;;;;;1.70;1.60;;;13.20;74.60;;;;;;5054847;28;20081;-78
2021/11/02 15:29:42;;;;;;;2.05;1.50;;;13.20;74.60;;;;;;5054445;28;20033;-76
2021/11/02 15:32:10;;;;;;;1.42;1.33;;;13.20;74.50;;;;;;5070285;28;20485;-76
2021/11/02 15:34:46;;;;;;;1.40;1.30;;;13.20;74.50;;;;;;5055292;28;20074;-76
2021/11/02 15:37:35;;;;;;;2.10;1.80;;;13.10;74.60;;;;;;5052513;28;20124;-77
2021/11/02 15:40:06;;;;;;;1.50;1.35;;;13.10;74.60;;;;;;5049026;28;20045;-77
2021/11/02 15:42:36;;;;;;;1.50;1.40;;;13.20;74.50;;;;;;5056667;28;20036;-76
2021/11/02 15:45:08;;;;;;;1.67;1.48;;;13.10;74.50;;;;;;5072313;28;20037;-77
2021/11/02 15:47:39;;;;;;;1.90;1.45;;;13.10;74.50;;;;;;5054567;28;20449;-76
2021/11/02 15:50:14;;;;;;;1.60;1.50;;;13.20;74.60;;;;;;5053912;28;20029;-76
2021/11/02 15:52:40;;;;;;;1.63;1.52;;;13.20;74.60;;;;;;5053745;28;20025;-77
2021/11/02 15:55:17;;;;;;;2.15;1.70;;;13.10;74.50;;;;;;5053447;28;20460;-77
2021/11/02 15:57:47;;;;;;;1.70;1.60;;;13.10;74.50;;;;;;5053677;28;20125;-76
2021/11/02 16:00:17;;;;;;;1.75;1.63;;;13.20;74.50;;;;;;5053494;28;20075;-76
2021/11/02 16:02:46;;;;;;;1.85;1.67;;;13.10;74.50;;;;;;5053963;28;20052;-77
2021/11/02 16:05:22;;;;;;;1.95;1.80;;;13.10;74.50;;;;;;5053052;28;20036;-78
2021/11/02 16:07:48;;;;;;;1.80;1.60;;;13.10;74.60;;;;;;5053539;28;20036;-77
2021/11/02 16:10:15;;;;;;;2.25;1.80;;;13.10;74.50;;;;;;5052889;28;20366;-77
2021/11/02 16:12:43;;;;;;;1.95;1.75;;;13.10;74.50;;;;;;5053490;28;20036;-77
2021/11/02 16:15:18;;;;;;;2.40;1.80;;;13.10;74.50;;;;;;5053265;28;20033;-78
2021/11/02 16:17:43;;;;;;;;;;;13.10;74.60;;;;;;5053581;28;20457;-78
2021/11/02 16:20:26;;;;;;;1.67;1.58;;;13.10;74.50;;;;;;5052812;28;19905;-76
2021/11/02 16:22:59;;;;;;;2.03;1.70;;;13.10;74.50;;;;;;5053077;28;20092;-77
2021/11/02 16:25:27;;;;;;;1.92;1.70;;;13.10;74.50;;;;;;5053317;28;20103;-78
2021/11/02 16:28:05;;;;;;;1.88;1.67;;;13.00;74.50;;;;;;5053801;28;20072;-78
2021/11/02 16:30:42;;;;;;;1.85;1.70;;;13.00;74.60;;;;;;5054411;28;20047;-79
2021/11/02 16:33:09;;;;;;;2.00;1.75;;;13.00;74.60;;;;;;5053029;28;20120;-78
2021/11/02 16:35:50;;;;;;;2.08;1.88;;;13.00;74.60;;;;;;5054214;28;20029;-77
2021/11/02 16:38:36;;;;;;;2.13;1.90;;;13.00;74.70;;;;;;5053458;28;20051;-78
2021/11/02 16:41:20;;;;;;;2.70;2.30;;;13.00;74.60;;;;;;5054700;28;20464;-77
2021/11/02 16:43:52;;;;;;;2.33;2.10;;;13.00;74.60;;;;;;5053421;28;20460;-77
2021/11/02 16:46:46;;;;;;;2.70;2.00;;;13.00;74.60;;;;;;5052741;28;20029;-77
2021/11/02 16:49:19;;;;;;;3.95;2.10;;;13.00;74.70;;;;;;5052700;28;20037;-76
2021/11/02 16:51:54;;;;;;;2.58;1.92;;;13.00;74.60;;;;;;5053792;28;20021;-77
2021/11/02 16:54:25;;;;;;;1.85;1.75;;;13.00;74.60;;;;;;5052770;28;20066;-78
2021/11/02 16:57:06;;;;;;;2.22;1.80;;;13.00;74.60;;;;;;5053731;28;20463;-78
2021/11/02 16:59:38;;;;;;;2.17;1.90;;;13.00;74.70;;;;;;5052349;28;20025;-78
2021/11/02 17:02:20;;;;;;;3.05;1.77;;;13.00;74.70;;;;;;5053446;28;20033;-79
2021/11/02 17:05:08;;;;;;;1.90;1.75;;;12.90;74.60;;;;;;5052809;28;20037;-78
2021/11/02 17:08:02;;;;;;;2.15;1.83;;;12.90;74.70;;;;;;5052034;28;20113;-80
2021/11/02 17:10:30;;;;;;;2.00;1.80;;;13.00;74.80;;;;;;5052216;28;20036;-79
2021/11/02 17:13:08;;;;;;;1.70;1.60;;;13.00;74.60;;;;;;5051664;28;20070;-79
2021/11/02 17:15:38;;;;;;;1.77;1.67;;;12.90;74.60;;;;;;5052974;28;20359;-79
2021/11/02 17:18:07;;;;;;;2.00;1.80;;;12.90;74.60;;;;;;5051855;28;20481;-78
2021/11/02 17:20:34;;;;;;;2.25;1.88;;;12.90;74.60;;;;;;5051936;28;20469;-80
2021/11/02 17:23:01;;;;;;;1.60;1.50;;;12.90;74.60;;;;;;5052282;28;20052;-79
2021/11/02 17:25:28;;;;;;;2.00;1.80;;;12.90;74.60;;;;;;5051809;28;20089;-78
2021/11/02 17:27:54;;;;;;;2.05;1.60;;;12.90;74.60;;;;;;5051808;28;20036;-78
2021/11/02 17:30:26;;;;;;;1.85;1.73;;;12.90;74.50;;;;;;5051780;28;20017;-78
2021/11/02 17:32:55;;;;;;;1.65;1.50;;;12.90;74.60;;;;;;5052820;28;20066;-78
2021/11/02 17:35:22;;;;;;;1.83;1.73;;;12.90;74.50;;;;;;5053358;28;20025;-78
2021/11/02 17:37:52;;;;;;;1.70;1.60;;;12.90;74.50;;;;;;5035487;28;20057;-78
2021/11/02 17:40:19;;;;;;;1.52;1.42;;;12.90;74.50;;;;;;5051830;28;20534;-79
2021/11/02 17:42:46;;;;;;;1.60;1.50;;;12.90;74.50;;;;;;5068560;28;20032;-78
2021/11/02 17:45:13;;;;;;;2.25;1.58;;;12.80;74.50;;;;;;5035214;28;20029;-79
2021/11/02 17:47:47;;;;;;;1.40;1.30;;;12.90;74.50;;;;;;5051979;28;20370;-80
2021/11/02 17:50:14;;;;;;;2.57;1.60;;;12.90;74.50;;;;;;5051967;28;20029;-78
2021/11/02 17:52:41;;;;;;;1.73;1.63;;;12.80;74.40;;;;;;5051827;28;20234;-79
2021/11/02 17:55:09;;;;;;;1.70;1.42;;;12.80;74.40;;;;;;5068142;28;20033;-77
2021/11/02 17:57:39;;;;;;;1.55;1.45;;;12.80;74.40;;;;;;5051827;28;20025;-79
2021/11/02 18:00:06;;;;;;;1.73;1.55;;;12.80;74.40;;;;;;5036049;28;20116;-77
2021/11/02 18:02:33;;;;;;;2.08;1.50;;;12.70;74.40;;;;;;5055215;28;20025;-77
2021/11/02 18:04:59;;;;;;;1.80;1.55;;;12.80;74.40;;;;;;5055785;28;20072;-78
2021/11/02 18:07:26;;;;;;;1.40;1.30;;;12.80;74.40;;;;;;5039630;28;20056;-78
2021/11/02 18:09:54;;;;;;;1.60;1.50;;;12.80;74.40;;;;;;5055382;28;20087;-77